createdAt,value
2022-10-01T00:01:41.259Z,25.27
2022-10-01T00:04:07.619Z,29.20
2022-10-01T00:06:33.977Z,27.17
2022-10-01T00:09:00.301Z,33.25
2022-10-01T00:11:26.651Z,25.88
2022-10-01T00:13:53.495Z,23.73
2022-10-01T00:16:22.544Z,26.73
2022-10-01T00:18:49.510Z,21.38
2022-10-01T00:21:17.169Z,18.67
2022-10-01T00:23:43.603Z,14.82
2022-10-01T00:26:23.145Z,16.25
2022-10-01T00:28:54.237Z,19.23
2022-10-01T00:31:21.261Z,25.25
2022-10-01T00:33:48.308Z,22.25
2022-10-01T00:36:14.975Z,28.33
2022-10-01T00:38:41.580Z,21.80
2022-10-01T00:41:08.800Z,24.73
2022-10-01T00:43:37.714Z,18.80
2022-10-01T00:46:15.746Z,24.08
2022-10-01T00:48:58.145Z,22.13
2022-10-01T00:51:26.797Z,22.48
2022-10-01T00:53:54.763Z,20.98
2022-10-01T00:56:21.099Z,23.15
2022-10-01T00:58:47.473Z,19.60
2022-10-01T01:01:13.947Z,22.83
2022-10-01T01:03:40.318Z,25.10
2022-10-01T01:06:08.127Z,26.48
2022-10-01T01:11:07.757Z,19.58
2022-10-01T01:13:54.739Z,27.67
2022-10-01T01:16:33.974Z,19.45
2022-10-01T01:19:20.700Z,22.40
2022-10-01T01:21:51.888Z,22.13
2022-10-01T01:24:35.950Z,24.48
2022-10-01T01:27:21.721Z,26.38
2022-10-01T01:29:48.127Z,26.23
2022-10-01T01:32:18.974Z,28.70
2022-10-01T01:34:46.776Z,25.75
2022-10-01T01:39:42.970Z,32.00
2022-10-01T01:42:20.058Z,27.15
2022-10-01T01:44:47.607Z,29.70
2022-10-01T01:47:14.319Z,26.63
2022-10-01T01:49:42.055Z,30.92
2022-10-01T01:52:17.234Z,22.42
2022-10-01T01:54:44.548Z,17.58
2022-10-01T01:57:11.579Z,26.30
2022-10-01T01:59:37.897Z,29.52
2022-10-01T02:02:06.889Z,33.78
2022-10-01T02:04:36.378Z,29.98
2022-10-01T02:07:08.831Z,24.55
2022-10-01T02:09:35.150Z,30.73
2022-10-01T02:12:09.789Z,28.65
2022-10-01T02:14:56.085Z,23.98
2022-10-01T02:17:25.393Z,25.25
2022-10-01T02:19:56.045Z,24.92
2022-10-01T02:22:25.241Z,23.42
2022-10-01T02:24:58.518Z,29.58
2022-10-01T02:27:34.618Z,29.00
2022-10-01T02:30:03.359Z,19.25
2022-10-01T02:32:30.880Z,27.70
2022-10-01T02:34:57.730Z,20.27
2022-10-01T02:37:26.097Z,21.10
2022-10-01T02:39:54.361Z,23.38
2022-10-01T02:42:21.722Z,23.65
2022-10-01T02:44:50.102Z,24.20
2022-10-01T02:47:28.171Z,26.13
2022-10-01T02:49:54.543Z,23.02
2022-10-01T02:52:20.877Z,28.98
2022-10-01T02:54:47.184Z,27.55
2022-10-01T02:57:24.562Z,23.77
2022-10-01T02:59:51.582Z,27.58
2022-10-01T03:02:18.540Z,23.65
2022-10-01T03:04:44.956Z,27.50
2022-10-01T03:07:11.287Z,25.23
2022-10-01T03:09:37.695Z,19.70
2022-10-01T03:12:04.148Z,28.38
2022-10-01T03:14:32.257Z,22.35
2022-10-01T03:16:58.583Z,20.15
2022-10-01T03:19:25.139Z,23.92
2022-10-01T03:21:51.485Z,21.77
2022-10-01T03:24:17.835Z,23.25
2022-10-01T03:26:45.220Z,26.10
2022-10-01T03:29:13.250Z,24.27
2022-10-01T03:31:39.696Z,24.20
2022-10-01T03:34:06.114Z,22.67
2022-10-01T03:36:32.471Z,15.35
2022-10-01T03:38:59.133Z,18.92
2022-10-01T03:41:25.495Z,18.42
2022-10-01T03:43:51.902Z,20.80
2022-10-01T03:46:18.234Z,21.23
2022-10-01T03:48:44.535Z,17.42
2022-10-01T03:51:10.905Z,15.13
2022-10-01T03:53:37.845Z,17.17
2022-10-01T03:56:04.929Z,21.63
2022-10-01T03:58:31.265Z,26.80
2022-10-01T04:00:58.342Z,20.88
2022-10-01T04:03:24.775Z,16.10
2022-10-01T04:05:51.129Z,21.25
2022-10-01T04:08:22.031Z,21.95
2022-10-01T04:10:50.634Z,14.35
2022-10-01T04:13:17.374Z,19.60
2022-10-01T04:15:43.924Z,17.98
2022-10-01T04:18:10.713Z,12.75
2022-10-01T04:20:37.944Z,17.08
2022-10-01T04:23:05.011Z,12.23
2022-10-01T04:25:31.626Z,12.80
2022-10-01T04:27:59.307Z,11.10
2022-10-01T04:30:30.595Z,13.57
2022-10-01T04:32:56.905Z,11.55
2022-10-01T04:35:23.529Z,15.38
2022-10-01T04:38:03.482Z,15.07
2022-10-01T04:40:30.833Z,19.88
2022-10-01T04:42:57.376Z,18.25
2022-10-01T04:45:23.752Z,17.50
2022-10-01T04:47:51.055Z,16.27
2022-10-01T04:50:17.866Z,17.55
2022-10-01T04:52:44.296Z,16.08
2022-10-01T04:55:11.153Z,17.25
2022-10-01T04:57:38.693Z,18.05
2022-10-01T05:00:06.353Z,16.92
2022-10-01T05:02:34.532Z,19.77
2022-10-01T05:05:04.876Z,20.23
2022-10-01T05:07:31.679Z,17.40
2022-10-01T05:09:58.518Z,19.40
2022-10-01T05:12:25.426Z,22.63
2022-10-01T05:14:52.410Z,19.47
2022-10-01T05:17:19.551Z,21.98
2022-10-01T05:19:46.209Z,14.80
2022-10-01T05:22:12.588Z,20.08
2022-10-01T05:24:39.017Z,19.73
2022-10-01T05:27:05.841Z,23.63
2022-10-01T05:29:33.320Z,14.73
2022-10-01T05:31:59.792Z,22.08
2022-10-01T05:34:26.121Z,22.40
2022-10-01T05:36:52.474Z,18.77
2022-10-01T05:39:18.803Z,17.15
2022-10-01T05:41:45.142Z,18.83
2022-10-01T05:44:11.485Z,17.52
2022-10-01T05:46:37.881Z,16.05
2022-10-01T05:49:04.291Z,18.88
2022-10-01T05:51:30.626Z,17.45
2022-10-01T05:53:59.070Z,14.95
2022-10-01T05:56:25.897Z,13.40
2022-10-01T05:58:52.219Z,15.73
2022-10-01T06:01:18.543Z,20.85
2022-10-01T06:03:44.877Z,16.45
2022-10-01T06:06:11.238Z,21.15
2022-10-01T06:08:40.318Z,24.48
2022-10-01T06:11:06.711Z,16.13
2022-10-01T06:13:35.488Z,16.58
2022-10-01T06:16:01.922Z,17.27
2022-10-01T06:18:28.357Z,16.77
2022-10-01T06:20:54.778Z,20.63
2022-10-01T06:23:21.105Z,22.42
2022-10-01T06:25:47.495Z,20.30
2022-10-01T06:28:15.433Z,24.50
2022-10-01T06:30:42.485Z,21.50
2022-10-01T06:33:10.221Z,20.33
2022-10-01T06:35:39.862Z,23.38
2022-10-01T06:38:06.649Z,28.40
2022-10-01T06:40:33.009Z,21.20
2022-10-01T06:42:59.394Z,19.17
2022-10-01T06:45:26.601Z,23.25
2022-10-01T06:47:53.557Z,20.48
2022-10-01T06:50:19.918Z,19.13
2022-10-01T06:52:49.313Z,24.13
2022-10-01T06:55:19.914Z,21.90
2022-10-01T06:57:46.742Z,20.27
2022-10-01T07:00:14.333Z,20.67
2022-10-01T07:02:40.815Z,18.85
2022-10-01T07:05:08.241Z,14.43
2022-10-01T07:07:35.829Z,12.80
2022-10-01T07:10:02.592Z,14.90
2022-10-01T07:12:29.116Z,13.50
2022-10-01T07:14:55.456Z,17.27
2022-10-01T07:17:22.197Z,16.60
2022-10-01T07:19:48.534Z,13.48
2022-10-01T07:22:14.881Z,13.00
2022-10-01T07:24:41.236Z,21.10
2022-10-01T07:27:07.725Z,18.65
2022-10-01T07:29:34.160Z,17.48
2022-10-01T07:32:00.914Z,12.98
2022-10-01T07:34:28.009Z,14.25
2022-10-01T07:36:56.528Z,15.60
2022-10-01T07:39:23.380Z,15.10
2022-10-01T07:41:51.474Z,19.17
2022-10-01T07:44:18.150Z,19.15
2022-10-01T07:46:44.565Z,18.67
2022-10-01T07:49:11.042Z,23.48
2022-10-01T07:51:37.381Z,19.45
2022-10-01T07:54:04.309Z,12.93
2022-10-01T07:56:30.912Z,20.23
2022-10-01T07:58:58.114Z,16.55
2022-10-01T08:01:25.064Z,14.35
2022-10-01T08:03:51.942Z,18.48
2022-10-01T08:06:23.252Z,14.47
2022-10-01T08:08:51.638Z,12.18
2022-10-01T08:11:18.282Z,17.67
2022-10-01T08:13:48.046Z,12.18
2022-10-01T08:16:14.534Z,11.55
2022-10-01T08:18:40.939Z,7.18
2022-10-01T08:21:07.705Z,8.60
2022-10-01T08:23:34.556Z,10.90
2022-10-01T08:26:02.067Z,11.07
2022-10-01T08:28:28.554Z,5.55
2022-10-01T08:30:56.176Z,7.13
2022-10-01T08:33:22.959Z,5.78
2022-10-01T08:35:49.506Z,11.93
2022-10-01T08:38:16.049Z,11.75
2022-10-01T08:40:45.793Z,11.10
2022-10-01T08:43:19.179Z,10.32
2022-10-01T08:45:47.170Z,10.30
2022-10-01T08:48:19.433Z,10.57
2022-10-01T08:51:03.240Z,15.45
2022-10-01T08:53:38.713Z,9.82
2022-10-01T08:56:06.835Z,12.88
2022-10-01T08:58:40.522Z,15.98
2022-10-01T09:01:07.045Z,13.98
2022-10-01T09:03:33.815Z,15.98
2022-10-01T09:06:10.789Z,11.30
2022-10-01T09:08:46.429Z,19.38
2022-10-01T09:11:31.757Z,11.68
2022-10-01T09:13:59.760Z,17.38
2022-10-01T09:19:10.755Z,14.73
2022-10-01T09:21:41.295Z,13.88
2022-10-01T09:24:14.944Z,12.52
2022-10-01T09:26:43.594Z,12.57
2022-10-01T09:29:14.103Z,14.30
2022-10-01T09:31:42.779Z,16.27
2022-10-01T09:34:11.866Z,15.57
2022-10-01T09:36:47.001Z,16.30
2022-10-01T09:39:13.585Z,10.95
2022-10-01T09:41:40.109Z,13.93
2022-10-01T09:44:15.655Z,10.95
2022-10-01T09:46:46.173Z,10.00
2022-10-01T09:49:20.089Z,9.13
2022-10-01T09:51:48.488Z,14.43
2022-10-01T09:54:36.009Z,14.98
2022-10-01T09:57:07.477Z,14.02
2022-10-01T09:59:45.622Z,12.38
2022-10-01T10:02:22.657Z,13.23
2022-10-01T10:04:58.993Z,14.93
2022-10-01T10:07:25.322Z,15.10
2022-10-01T10:09:52.337Z,14.38
2022-10-01T10:12:26.837Z,17.40
2022-10-01T10:14:55.390Z,13.95
2022-10-01T10:17:22.157Z,14.07
2022-10-01T10:19:51.569Z,14.20
2022-10-01T10:22:25.882Z,13.23
2022-10-01T10:24:53.771Z,14.40
2022-10-01T10:27:27.850Z,13.27
2022-10-01T10:30:06.539Z,11.77
2022-10-01T10:32:33.143Z,15.32
2022-10-01T10:35:03.671Z,8.88
2022-10-01T10:37:31.918Z,9.82
2022-10-01T10:39:58.462Z,11.25
2022-10-01T10:42:25.212Z,8.73
2022-10-01T10:44:52.865Z,7.90
2022-10-01T10:47:20.292Z,11.85
2022-10-01T10:49:49.677Z,9.63
2022-10-01T10:52:36.526Z,9.38
2022-10-01T10:55:23.287Z,9.48
2022-10-01T11:00:18.615Z,9.05
2022-10-01T11:02:50.199Z,9.32
2022-10-01T11:05:20.874Z,10.77
2022-10-01T11:07:48.692Z,8.95
2022-10-01T11:10:24.514Z,10.38
2022-10-01T11:12:56.739Z,10.37
2022-10-01T11:15:26.195Z,9.27
2022-10-01T11:18:01.194Z,10.35
2022-10-01T11:20:33.909Z,10.88
2022-10-01T11:23:06.426Z,11.52
2022-10-01T11:25:36.998Z,11.73
2022-10-01T11:28:22.582Z,11.15
2022-10-01T11:31:02.183Z,13.05
2022-10-01T11:33:34.368Z,8.40
2022-10-01T11:36:04.497Z,6.80
2022-10-01T11:38:51.134Z,8.95
2022-10-01T11:41:23.487Z,10.48
2022-10-01T11:43:54.404Z,6.75
2022-10-01T11:46:48.758Z,7.78
2022-10-01T11:49:27.128Z,7.93
2022-10-01T11:51:58.146Z,8.70
2022-10-01T11:54:25.974Z,11.43
2022-10-01T11:57:13.879Z,7.50
2022-10-01T12:00:09.526Z,8.15
2022-10-01T12:02:40.668Z,10.98
2022-10-01T12:05:09.940Z,8.75
2022-10-01T12:07:47.111Z,7.40
2022-10-01T12:10:28.221Z,8.73
2022-10-01T12:13:04.333Z,9.57
2022-10-01T12:16:01.792Z,7.78
2022-10-01T12:18:31.925Z,7.75
2022-10-01T12:21:03.105Z,9.93
2022-10-01T12:23:32.178Z,9.23
2022-10-01T12:26:01.722Z,6.28
2022-10-01T12:29:00.709Z,6.45
2022-10-01T12:31:37.067Z,6.18
2022-10-01T12:34:06.421Z,7.88
2022-10-01T12:36:34.561Z,7.47
2022-10-01T12:39:03.884Z,7.40
2022-10-01T12:41:33.233Z,11.63
2022-10-01T12:44:18.413Z,8.48
2022-10-01T12:46:44.825Z,10.82
2022-10-01T12:49:25.712Z,10.80
2022-10-01T12:52:06.603Z,8.70
2022-10-01T12:54:54.377Z,12.10
2022-10-01T12:57:20.735Z,9.18
2022-10-01T12:59:59.220Z,7.73
2022-10-01T13:02:49.334Z,9.68
2022-10-01T13:05:34.311Z,11.02
2022-10-01T13:08:18.776Z,11.70
2022-10-01T13:10:51.297Z,10.95
2022-10-01T13:13:34.686Z,10.05
2022-10-01T13:16:11.057Z,10.65
2022-10-01T13:18:40.582Z,12.38
2022-10-01T13:21:07.019Z,9.80
2022-10-01T13:23:53.613Z,10.57
2022-10-01T13:26:28.445Z,10.75
2022-10-01T13:29:00.793Z,10.02
2022-10-01T13:31:38.281Z,8.88
2022-10-01T13:34:24.351Z,11.07
2022-10-01T13:36:50.683Z,13.43
2022-10-01T13:39:35.603Z,8.43
2022-10-01T13:42:05.078Z,11.25
2022-10-01T13:44:34.000Z,10.60
2022-10-01T13:47:03.162Z,8.70
2022-10-01T13:49:30.459Z,10.85
2022-10-01T13:51:57.165Z,9.48
2022-10-01T13:54:27.762Z,15.20
2022-10-01T13:56:54.226Z,13.85
2022-10-01T13:59:31.023Z,12.93
2022-10-01T14:01:57.415Z,13.80
2022-10-01T14:04:31.269Z,10.13
2022-10-01T14:07:01.035Z,12.98
2022-10-01T14:09:28.896Z,10.77
2022-10-01T14:12:30.890Z,9.32
2022-10-01T14:15:17.101Z,9.20
2022-10-01T14:17:44.078Z,9.38
2022-10-01T14:20:17.630Z,9.45
2022-10-01T14:22:44.052Z,10.75
2022-10-01T14:25:13.384Z,17.40
2022-10-01T14:27:50.260Z,15.73
2022-10-01T14:32:50.812Z,21.63
2022-10-01T14:35:32.311Z,11.13
2022-10-01T14:38:00.421Z,11.65
2022-10-01T14:40:34.146Z,9.82
2022-10-01T14:43:01.574Z,9.68
2022-10-01T14:45:28.589Z,12.90
2022-10-01T14:48:02.334Z,16.60
2022-10-01T14:50:30.330Z,10.55
2022-10-01T14:52:58.438Z,7.93
2022-10-01T14:55:25.292Z,47.08
2022-10-01T14:57:53.802Z,13.27
2022-10-01T15:00:22.250Z,9.00
2022-10-01T15:03:10.714Z,11.55
2022-10-01T15:05:37.322Z,14.88
2022-10-01T15:08:11.644Z,13.43
2022-10-01T15:10:40.091Z,13.65
2022-10-01T15:13:06.494Z,11.88
2022-10-01T15:15:40.642Z,11.65
2022-10-01T15:18:07.456Z,12.48
2022-10-01T15:20:34.507Z,14.20
2022-10-01T15:23:01.809Z,12.20
2022-10-01T15:27:56.446Z,13.77
2022-10-01T15:30:24.951Z,12.40
2022-10-01T15:32:51.482Z,11.00
2022-10-01T15:35:19.575Z,12.00
2022-10-01T15:37:50.268Z,13.45
2022-10-01T15:40:30.610Z,11.02
2022-10-01T15:43:32.318Z,11.85
2022-10-01T15:46:04.641Z,11.90
2022-10-01T15:48:31.778Z,13.13
2022-10-01T15:51:05.815Z,13.60
2022-10-01T15:53:32.661Z,8.98
2022-10-01T15:55:59.916Z,13.07
2022-10-01T15:58:30.268Z,12.65
2022-10-01T16:00:59.714Z,9.90
2022-10-01T16:03:33.505Z,12.18
2022-10-01T16:06:01.752Z,14.00
2022-10-01T16:08:34.352Z,14.25
2022-10-01T16:11:12.949Z,12.80
2022-10-01T16:13:40.650Z,13.18
2022-10-01T16:16:13.287Z,14.27
2022-10-01T16:18:40.554Z,15.85
2022-10-01T16:21:09.133Z,12.20
2022-10-01T16:23:45.489Z,13.32
2022-10-01T16:26:38.190Z,15.80
2022-10-01T16:29:14.216Z,14.20
2022-10-01T16:31:43.319Z,12.50
2022-10-01T16:34:13.362Z,13.10
2022-10-01T16:36:39.918Z,13.52
2022-10-01T16:39:06.624Z,11.10
2022-10-01T16:41:33.866Z,15.80
2022-10-01T16:44:01.958Z,12.98
2022-10-01T16:46:28.565Z,13.10
2022-10-01T16:48:54.982Z,7.85
2022-10-01T16:51:21.927Z,12.32
2022-10-01T16:53:49.742Z,11.38
2022-10-01T16:56:16.240Z,18.95
2022-10-01T16:58:43.260Z,12.73
2022-10-01T17:01:10.129Z,13.63
2022-10-01T17:03:36.598Z,15.60
2022-10-01T17:06:03.517Z,13.00
2022-10-01T17:08:30.182Z,9.35
2022-10-01T17:10:58.818Z,10.53
2022-10-01T17:13:29.327Z,12.75
2022-10-01T17:15:55.793Z,7.88
2022-10-01T17:18:22.493Z,11.82
2022-10-01T17:20:48.865Z,15.37
2022-10-01T17:23:16.267Z,10.25
2022-10-01T17:25:43.003Z,9.98
2022-10-01T17:28:13.933Z,13.20
2022-10-01T17:30:44.886Z,9.82
2022-10-01T17:33:12.081Z,12.38
2022-10-01T17:35:43.380Z,10.45
2022-10-01T17:38:10.201Z,13.93
2022-10-01T17:40:39.132Z,9.70
2022-10-01T17:43:05.487Z,10.32
2022-10-01T17:45:31.893Z,12.45
2022-10-01T17:47:58.290Z,10.27
2022-10-01T17:50:24.761Z,13.20
2022-10-01T17:52:51.163Z,10.45
2022-10-01T17:55:19.747Z,12.05
2022-10-01T17:57:46.081Z,10.40
2022-10-01T18:00:12.924Z,14.93
2022-10-01T18:02:43.370Z,9.73
2022-10-01T18:05:12.251Z,9.43
2022-10-01T18:07:39.018Z,11.98
2022-10-01T18:10:06.246Z,8.77
2022-10-01T18:12:33.738Z,11.55
2022-10-01T18:17:26.850Z,10.68
2022-10-01T18:19:54.089Z,8.27
2022-10-01T18:22:20.845Z,10.50
2022-10-01T18:24:47.344Z,9.02
2022-10-01T18:27:13.886Z,8.27
2022-10-01T18:29:40.255Z,9.15
2022-10-01T18:32:26.886Z,6.07
2022-10-01T18:35:00.262Z,9.75
2022-10-01T18:37:40.359Z,11.75
2022-10-01T18:40:07.097Z,9.27
2022-10-01T18:42:39.698Z,11.95
2022-10-01T18:45:12.800Z,13.57
2022-10-01T18:47:39.202Z,9.55
2022-10-01T18:50:28.401Z,6.40
2022-10-01T18:53:18.684Z,9.38
2022-10-01T18:56:03.973Z,7.63
2022-10-01T18:58:40.308Z,9.70
2022-10-01T19:01:14.560Z,10.00
2022-10-01T19:04:04.086Z,6.57
2022-10-01T19:06:33.593Z,13.18
2022-10-01T19:09:15.075Z,10.35
2022-10-01T19:11:46.238Z,9.70
2022-10-01T19:14:26.122Z,12.80
2022-10-01T19:16:59.429Z,10.73
2022-10-01T19:19:34.980Z,10.38
2022-10-01T19:22:03.074Z,14.13
2022-10-01T19:24:41.150Z,9.73
2022-10-01T19:27:14.486Z,10.63
2022-10-01T19:30:16.201Z,14.15
2022-10-01T19:32:46.017Z,12.57
2022-10-01T19:35:12.736Z,9.38
2022-10-01T19:37:47.237Z,15.05
2022-10-01T19:40:19.390Z,11.55
2022-10-01T19:42:48.354Z,11.98
2022-10-01T19:45:18.674Z,9.85
2022-10-01T19:48:03.601Z,14.00
2022-10-01T19:50:32.842Z,10.68
2022-10-01T19:53:01.920Z,11.55
2022-10-01T19:55:32.144Z,11.00
2022-10-01T19:58:01.971Z,15.35
2022-10-01T20:00:29.143Z,11.70
2022-10-01T20:03:00.499Z,13.35
2022-10-01T20:05:28.952Z,14.98
2022-10-01T20:08:01.668Z,12.00
2022-10-01T20:10:28.014Z,21.20
2022-10-01T20:13:12.859Z,12.27
2022-10-01T20:15:59.492Z,13.02
2022-10-01T20:18:37.351Z,16.60
2022-10-01T20:21:03.671Z,16.05
2022-10-01T20:23:39.140Z,14.68
2022-10-01T20:26:28.780Z,18.50
2022-10-01T20:29:01.165Z,12.52
2022-10-01T20:31:29.645Z,16.98
2022-10-01T20:34:14.106Z,15.27
2022-10-01T20:36:40.950Z,14.02
2022-10-01T20:39:10.556Z,11.73
2022-10-01T20:41:43.820Z,14.68
2022-10-01T20:44:11.729Z,20.75
2022-10-01T20:46:44.516Z,14.85
2022-10-01T20:49:15.245Z,17.67
2022-10-01T20:51:46.970Z,14.82
2022-10-01T20:54:16.861Z,16.58
2022-10-01T20:56:50.661Z,17.58
2022-10-01T20:59:19.259Z,17.33
2022-10-01T21:01:53.165Z,12.25
2022-10-01T21:04:23.303Z,16.13
2022-10-01T21:06:55.078Z,14.68
2022-10-01T21:09:25.320Z,19.48
2022-10-01T21:11:58.938Z,16.00
2022-10-01T21:14:27.821Z,15.27
2022-10-01T21:16:57.102Z,19.83
2022-10-01T21:19:29.266Z,14.55
2022-10-01T21:22:13.038Z,15.05
2022-10-01T21:24:39.359Z,17.17
2022-10-01T21:27:17.225Z,12.32
2022-10-01T21:29:46.505Z,13.63
2022-10-01T21:32:33.427Z,15.38
2022-10-01T21:35:12.523Z,18.05
2022-10-01T21:37:43.474Z,14.55
2022-10-01T21:40:20.415Z,16.25
2022-10-01T21:42:57.772Z,15.57
2022-10-01T21:45:43.216Z,20.88
2022-10-01T21:48:16.178Z,12.65
2022-10-01T21:50:42.750Z,17.45
2022-10-01T21:53:18.317Z,12.85
2022-10-01T21:55:44.630Z,14.75
2022-10-01T21:58:10.965Z,17.45
2022-10-01T22:00:37.389Z,15.15
2022-10-01T22:03:10.160Z,18.85
2022-10-01T22:05:37.342Z,16.25
2022-10-01T22:08:18.225Z,19.15
2022-10-01T22:10:46.413Z,16.33
2022-10-01T22:13:20.690Z,15.25
2022-10-01T22:15:49.105Z,18.30
2022-10-01T22:18:20.785Z,19.77
2022-10-01T22:20:47.711Z,15.43
2022-10-01T22:23:16.995Z,15.63
2022-10-01T22:26:03.604Z,17.80
2022-10-01T22:28:34.449Z,14.67
2022-10-01T22:31:01.546Z,12.68
2022-10-01T22:33:30.874Z,16.48
2022-10-01T22:36:07.927Z,18.75
2022-10-01T22:38:53.952Z,17.30
2022-10-01T22:41:27.400Z,17.27
2022-10-01T22:43:53.770Z,12.35
2022-10-01T22:46:35.452Z,18.83
2022-10-01T22:49:14.726Z,16.45
2022-10-01T22:51:41.095Z,13.70
2022-10-01T22:54:26.439Z,11.57
2022-10-01T22:56:55.878Z,14.82
2022-10-01T22:59:37.013Z,13.77
2022-10-01T23:02:18.999Z,16.58
2022-10-01T23:04:54.344Z,14.30
2022-10-01T23:07:29.658Z,12.57
2022-10-01T23:09:56.004Z,8.88
2022-10-01T23:12:32.241Z,12.48
2022-10-01T23:15:09.639Z,12.65
2022-10-01T23:17:42.302Z,13.90
2022-10-01T23:20:08.677Z,12.88
2022-10-01T23:22:38.728Z,11.38
2022-10-01T23:25:26.627Z,13.02
2022-10-01T23:27:52.954Z,14.60
2022-10-01T23:30:19.731Z,9.98
2022-10-01T23:33:04.561Z,10.73
2022-10-01T23:35:42.763Z,10.52
2022-10-01T23:38:18.112Z,13.38
2022-10-01T23:40:45.604Z,13.15
2022-10-01T23:43:28.214Z,15.57
2022-10-01T23:46:06.130Z,9.75
2022-10-01T23:48:38.446Z,13.95
2022-10-01T23:51:07.809Z,9.82
2022-10-01T23:53:42.569Z,10.50
2022-10-01T23:56:34.018Z,11.90
2022-10-01T23:59:03.079Z,10.23
